FD541 YHAW-YPAD
Flight info
| Callsign | FD541 |
|---|---|
| Flight time | 0h 55m |
| Altitude | 23000 |
| Route | PARDA H135 KLAVA |
| Aircraft | PC12/L-SDFGRWY/S |
Departure
| Time | 2026-04-19 04:30 |
|---|---|
| Airport | Wilpena Pound Airport (YHAW) |
Arrival
| Time | 2026-04-19 05:25 |
|---|---|
| Airport | Adelaide International Airport (YPAD) |
| Time | Latitude | Longitude | Altitude | Speed | Heading |
|---|---|---|---|---|---|
| 2026-04-19 04:23 | -31.84979 | 138.46976 | 1040 ft | 0 kts | 183° |
| 2026-04-19 04:28 | -31.84991 | 138.46971 | 1039 ft | 5 kts | 238° |
| 2026-04-19 04:28 | -31.84944 | 138.46912 | 1038 ft | 10 kts | 268° |
| 2026-04-19 04:29 | -31.84944 | 138.46897 | 1039 ft | 0 kts | 268° |
| 2026-04-19 04:29 | -31.84945 | 138.46862 | 1038 ft | 16 kts | 269° |
| 2026-04-19 04:30 | -31.85001 | 138.46836 | 1036 ft | 9 kts | 184° |
| 2026-04-19 04:30 | -31.85307 | 138.46818 | 1041 ft | 73 kts | 183° |
| 2026-04-19 04:30 | -31.85966 | 138.46787 | 1138 ft | 111 kts | 184° |
| 2026-04-19 04:30 | -31.86811 | 138.46848 | 1506 ft | 135 kts | 173° |
| 2026-04-19 04:31 | -31.87788 | 138.47019 | 2061 ft | 152 kts | 174° |
| 2026-04-19 04:31 | -31.88907 | 138.47154 | 2617 ft | 170 kts | 178° |
| 2026-04-19 04:31 | -31.90111 | 138.47132 | 3304 ft | 176 kts | 187° |
| 2026-04-19 04:31 | -31.91373 | 138.47113 | 3910 ft | 187 kts | 181° |
| 2026-04-19 04:32 | -31.92688 | 138.47148 | 4513 ft | 194 kts | 181° |
| 2026-04-19 04:32 | -31.94058 | 138.47154 | 5143 ft | 199 kts | 182° |
| 2026-04-19 04:32 | -31.95460 | 138.47148 | 5756 ft | 202 kts | 182° |
| 2026-04-19 04:32 | -31.96879 | 138.47140 | 6386 ft | 205 kts | 181° |
| 2026-04-19 04:33 | -31.98311 | 138.47134 | 6991 ft | 206 kts | 182° |
| 2026-04-19 04:33 | -31.99730 | 138.47127 | 7579 ft | 207 kts | 182° |
| 2026-04-19 04:33 | -32.01175 | 138.47120 | 8185 ft | 207 kts | 182° |
| 2026-04-19 04:33 | -32.02620 | 138.47113 | 8809 ft | 208 kts | 182° |
| 2026-04-19 04:34 | -32.04081 | 138.47105 | 9369 ft | 210 kts | 181° |
| 2026-04-19 04:34 | -32.05542 | 138.47335 | 9883 ft | 212 kts | 177° |
| 2026-04-19 04:34 | -32.07024 | 138.47295 | 10371 ft | 214 kts | 187° |
| 2026-04-19 04:34 | -32.08504 | 138.47183 | 10840 ft | 217 kts | 184° |
| 2026-04-19 04:35 | -32.10023 | 138.47200 | 11327 ft | 219 kts | 181° |
| 2026-04-19 04:35 | -32.11550 | 138.47215 | 11815 ft | 220 kts | 183° |
| 2026-04-19 04:35 | -32.13086 | 138.47202 | 12318 ft | 221 kts | 184° |
| 2026-04-19 04:35 | -32.14626 | 138.47184 | 12817 ft | 221 kts | 184° |
| 2026-04-19 04:36 | -32.16169 | 138.47171 | 13330 ft | 222 kts | 184° |
| 2026-04-19 04:36 | -32.17717 | 138.47159 | 13849 ft | 223 kts | 184° |
| 2026-04-19 04:36 | -32.19255 | 138.47146 | 14322 ft | 224 kts | 184° |
| 2026-04-19 04:36 | -32.20820 | 138.47133 | 14794 ft | 224 kts | 184° |
| 2026-04-19 04:37 | -32.22384 | 138.47119 | 15267 ft | 225 kts | 184° |
| 2026-04-19 04:37 | -32.23961 | 138.47106 | 15750 ft | 226 kts | 184° |
| 2026-04-19 04:37 | -32.25534 | 138.47093 | 16237 ft | 227 kts | 184° |
| 2026-04-19 04:37 | -32.27117 | 138.47080 | 16732 ft | 228 kts | 184° |
| 2026-04-19 04:38 | -32.28709 | 138.47066 | 17244 ft | 229 kts | 184° |
| 2026-04-19 04:38 | -32.30300 | 138.47053 | 17762 ft | 229 kts | 184° |
| 2026-04-19 04:38 | -32.31875 | 138.47040 | 18277 ft | 229 kts | 184° |
| 2026-04-19 04:38 | -32.33477 | 138.47026 | 18757 ft | 231 kts | 185° |
| 2026-04-19 04:39 | -32.35088 | 138.47012 | 19218 ft | 232 kts | 185° |
| 2026-04-19 04:39 | -32.36702 | 138.46999 | 19691 ft | 232 kts | 185° |
| 2026-04-19 04:39 | -32.38325 | 138.46985 | 20165 ft | 233 kts | 185° |
| 2026-04-19 04:39 | -32.39946 | 138.46972 | 20650 ft | 233 kts | 186° |
| 2026-04-19 04:40 | -32.41577 | 138.46958 | 21142 ft | 233 kts | 186° |
| 2026-04-19 04:40 | -32.43203 | 138.46945 | 21645 ft | 233 kts | 186° |
| 2026-04-19 04:40 | -32.44799 | 138.46931 | 22143 ft | 232 kts | 186° |
| 2026-04-19 04:40 | -32.46411 | 138.46917 | 22655 ft | 231 kts | 186° |
| 2026-04-19 04:41 | -32.48046 | 138.46912 | 23094 ft | 234 kts | 185° |
| 2026-04-19 04:41 | -32.49705 | 138.46952 | 23173 ft | 250 kts | 185° |
| 2026-04-19 04:41 | -32.51490 | 138.46982 | 23175 ft | 262 kts | 185° |
| 2026-04-19 04:41 | -32.53344 | 138.47021 | 23179 ft | 269 kts | 185° |
| 2026-04-19 04:42 | -32.55236 | 138.47066 | 23178 ft | 273 kts | 185° |
| 2026-04-19 04:42 | -32.57145 | 138.47111 | 23174 ft | 272 kts | 184° |
| 2026-04-19 04:42 | -32.59004 | 138.47153 | 23174 ft | 269 kts | 185° |
| 2026-04-19 04:42 | -32.60873 | 138.47193 | 23173 ft | 268 kts | 185° |
| 2026-04-19 04:43 | -32.62736 | 138.47232 | 23168 ft | 267 kts | 185° |
| 2026-04-19 04:43 | -32.64602 | 138.47273 | 23167 ft | 267 kts | 185° |
| 2026-04-19 04:43 | -32.66457 | 138.47314 | 23171 ft | 267 kts | 185° |
| 2026-04-19 04:43 | -32.68313 | 138.47355 | 23168 ft | 266 kts | 185° |
| 2026-04-19 04:44 | -32.70147 | 138.47395 | 23168 ft | 266 kts | 185° |
| 2026-04-19 04:44 | -32.72009 | 138.47436 | 23171 ft | 266 kts | 185° |
| 2026-04-19 04:44 | -32.73867 | 138.47477 | 23171 ft | 266 kts | 185° |
| 2026-04-19 04:44 | -32.75726 | 138.47518 | 23171 ft | 267 kts | 185° |
| 2026-04-19 04:45 | -32.77582 | 138.47558 | 23174 ft | 266 kts | 185° |
| 2026-04-19 04:45 | -32.79436 | 138.47599 | 23172 ft | 266 kts | 185° |
| 2026-04-19 04:45 | -32.81292 | 138.47640 | 23174 ft | 267 kts | 185° |
| 2026-04-19 04:45 | -32.83128 | 138.47680 | 23175 ft | 266 kts | 185° |
| 2026-04-19 04:46 | -32.85007 | 138.47722 | 23170 ft | 267 kts | 185° |
| 2026-04-19 04:46 | -32.86841 | 138.47762 | 23174 ft | 267 kts | 184° |
| 2026-04-19 04:46 | -32.88701 | 138.47803 | 23173 ft | 267 kts | 185° |
| 2026-04-19 04:46 | -32.90564 | 138.47844 | 23172 ft | 267 kts | 185° |
| 2026-04-19 04:47 | -32.92425 | 138.47886 | 23174 ft | 267 kts | 185° |
| 2026-04-19 04:47 | -32.94263 | 138.47926 | 23172 ft | 267 kts | 185° |
| 2026-04-19 04:47 | -32.96119 | 138.47966 | 23173 ft | 267 kts | 184° |
| 2026-04-19 04:47 | -32.97975 | 138.48008 | 23173 ft | 267 kts | 185° |
| 2026-04-19 04:48 | -32.99841 | 138.48049 | 23173 ft | 267 kts | 185° |
| 2026-04-19 04:48 | -33.01075 | 138.48076 | 23172 ft | 267 kts | 185° |
| 2026-04-19 04:48 | -33.03565 | 138.48132 | 23173 ft | 267 kts | 184° |
| 2026-04-19 04:48 | -33.04801 | 138.48159 | 23170 ft | 267 kts | 184° |
| 2026-04-19 04:49 | -33.06661 | 138.48200 | 23171 ft | 267 kts | 184° |
| 2026-04-19 04:49 | -33.08516 | 138.48241 | 23168 ft | 267 kts | 185° |
| 2026-04-19 04:49 | -33.10369 | 138.48282 | 23169 ft | 267 kts | 184° |
| 2026-04-19 04:49 | -33.12829 | 138.48337 | 23168 ft | 266 kts | 184° |
| 2026-04-19 04:50 | -33.14082 | 138.48364 | 23170 ft | 266 kts | 184° |
| 2026-04-19 04:50 | -33.15911 | 138.48405 | 23169 ft | 266 kts | 185° |
| 2026-04-19 04:50 | -33.17743 | 138.48445 | 23166 ft | 267 kts | 184° |
| 2026-04-19 04:50 | -33.19597 | 138.48487 | 23165 ft | 267 kts | 184° |
| 2026-04-19 04:51 | -33.21455 | 138.48528 | 23167 ft | 267 kts | 184° |
| 2026-04-19 04:51 | -33.23313 | 138.48569 | 23167 ft | 267 kts | 184° |
| 2026-04-19 04:51 | -33.25171 | 138.48610 | 23166 ft | 267 kts | 184° |
| 2026-04-19 04:51 | -33.27036 | 138.48652 | 23165 ft | 267 kts | 184° |
| 2026-04-19 04:52 | -33.28892 | 138.48693 | 23168 ft | 267 kts | 184° |
| 2026-04-19 04:52 | -33.30748 | 138.48734 | 23165 ft | 267 kts | 184° |
| 2026-04-19 04:52 | -33.32612 | 138.48776 | 23161 ft | 267 kts | 184° |
| 2026-04-19 04:52 | -33.34453 | 138.48817 | 23158 ft | 267 kts | 184° |
| 2026-04-19 04:53 | -33.36314 | 138.48859 | 23161 ft | 267 kts | 184° |
| 2026-04-19 04:53 | -33.38173 | 138.48900 | 23158 ft | 267 kts | 184° |
| 2026-04-19 04:53 | -33.40031 | 138.48941 | 23158 ft | 266 kts | 184° |
| 2026-04-19 04:53 | -33.41884 | 138.48983 | 23158 ft | 266 kts | 184° |
| 2026-04-19 04:54 | -33.43739 | 138.49024 | 23159 ft | 266 kts | 184° |
| 2026-04-19 04:54 | -33.45594 | 138.49065 | 23156 ft | 266 kts | 184° |
| 2026-04-19 04:54 | -33.47450 | 138.49107 | 23157 ft | 266 kts | 184° |
| 2026-04-19 04:54 | -33.49307 | 138.49148 | 23154 ft | 267 kts | 184° |
| 2026-04-19 04:55 | -33.51167 | 138.49190 | 23154 ft | 267 kts | 184° |
| 2026-04-19 04:55 | -33.53021 | 138.49231 | 23156 ft | 267 kts | 184° |
| 2026-04-19 04:55 | -33.54853 | 138.49272 | 23152 ft | 267 kts | 184° |
| 2026-04-19 04:55 | -33.56739 | 138.49314 | 23156 ft | 267 kts | 184° |
| 2026-04-19 04:56 | -33.58597 | 138.49356 | 23152 ft | 267 kts | 184° |
| 2026-04-19 04:56 | -33.60505 | 138.49399 | 23156 ft | 267 kts | 184° |
| 2026-04-19 04:56 | -33.62364 | 138.49440 | 23153 ft | 267 kts | 184° |
| 2026-04-19 04:56 | -33.64228 | 138.49482 | 23150 ft | 267 kts | 184° |
| 2026-04-19 04:57 | -33.66063 | 138.49523 | 23152 ft | 267 kts | 184° |
| 2026-04-19 04:57 | -33.67927 | 138.49565 | 23152 ft | 267 kts | 184° |
| 2026-04-19 04:57 | -33.69790 | 138.49607 | 23151 ft | 267 kts | 184° |
| 2026-04-19 04:57 | -33.71654 | 138.49649 | 23148 ft | 267 kts | 184° |
| 2026-04-19 04:58 | -33.73495 | 138.49690 | 23148 ft | 267 kts | 184° |
| 2026-04-19 04:58 | -33.75359 | 138.49732 | 23146 ft | 267 kts | 184° |
| 2026-04-19 04:58 | -33.77223 | 138.49774 | 23148 ft | 267 kts | 184° |
| 2026-04-19 04:58 | -33.79084 | 138.49816 | 23150 ft | 267 kts | 184° |
| 2026-04-19 04:59 | -33.80950 | 138.49858 | 23148 ft | 267 kts | 184° |
| 2026-04-19 04:59 | -33.82792 | 138.49899 | 23147 ft | 268 kts | 184° |
| 2026-04-19 04:59 | -33.84655 | 138.49941 | 23147 ft | 268 kts | 184° |
| 2026-04-19 04:59 | -33.86520 | 138.49983 | 23149 ft | 268 kts | 184° |
| 2026-04-19 05:00 | -33.88387 | 138.50025 | 23148 ft | 268 kts | 184° |
| 2026-04-19 05:00 | -33.90247 | 138.50067 | 23143 ft | 268 kts | 184° |
| 2026-04-19 05:00 | -33.92113 | 138.50110 | 23146 ft | 268 kts | 184° |
| 2026-04-19 05:00 | -33.93981 | 138.50154 | 23140 ft | 268 kts | 184° |
| 2026-04-19 05:01 | -33.95832 | 138.50192 | 23057 ft | 270 kts | 184° |
| 2026-04-19 05:01 | -33.97711 | 138.50233 | 22982 ft | 271 kts | 184° |
| 2026-04-19 05:01 | -33.99613 | 138.50277 | 22490 ft | 269 kts | 183° |
| 2026-04-19 05:01 | -34.01419 | 138.50325 | 21951 ft | 246 kts | 184° |
| 2026-04-19 05:02 | -34.03138 | 138.50362 | 21419 ft | 255 kts | 184° |
| 2026-04-19 05:02 | -34.04873 | 138.50398 | 20915 ft | 237 kts | 183° |
| 2026-04-19 05:02 | -34.06559 | 138.50438 | 20415 ft | 247 kts | 183° |
| 2026-04-19 05:02 | -34.07706 | 138.50460 | 20097 ft | 251 kts | 183° |
| 2026-04-19 05:03 | -34.08700 | 138.50480 | 19825 ft | 239 kts | 182° |
| 2026-04-19 05:03 | -34.10347 | 138.50520 | 19352 ft | 247 kts | 182° |
| 2026-04-19 05:03 | -34.12028 | 138.50561 | 18883 ft | 232 kts | 182° |
| 2026-04-19 05:03 | -34.13669 | 138.50597 | 18418 ft | 250 kts | 182° |
| 2026-04-19 05:04 | -34.15372 | 138.50634 | 17904 ft | 233 kts | 182° |
| 2026-04-19 05:04 | -34.17011 | 138.50673 | 17377 ft | 239 kts | 182° |
| 2026-04-19 05:04 | -34.18612 | 138.50652 | 16860 ft | 236 kts | 189° |
| 2026-04-19 05:04 | -34.20315 | 138.50267 | 16381 ft | 249 kts | 195° |
| 2026-04-19 05:05 | -34.21927 | 138.49874 | 15878 ft | 230 kts | 193° |
| 2026-04-19 05:05 | -34.23496 | 138.49575 | 15547 ft | 245 kts | 191° |
| 2026-04-19 05:05 | -34.25121 | 138.49292 | 15189 ft | 242 kts | 191° |
| 2026-04-19 05:05 | -34.26770 | 138.48988 | 14837 ft | 239 kts | 191° |
| 2026-04-19 05:06 | -34.28414 | 138.48676 | 14480 ft | 242 kts | 192° |
| 2026-04-19 05:06 | -34.30033 | 138.48371 | 14130 ft | 238 kts | 191° |
| 2026-04-19 05:06 | -34.31647 | 138.48070 | 13763 ft | 232 kts | 191° |
| 2026-04-19 05:06 | -34.33233 | 138.47773 | 13358 ft | 230 kts | 192° |
| 2026-04-19 05:07 | -34.34814 | 138.47414 | 12972 ft | 233 kts | 193° |
| 2026-04-19 05:07 | -34.36392 | 138.47139 | 12588 ft | 227 kts | 190° |
| 2026-04-19 05:07 | -34.37969 | 138.46881 | 12212 ft | 224 kts | 191° |
| 2026-04-19 05:07 | -34.39518 | 138.46593 | 11837 ft | 222 kts | 192° |
| 2026-04-19 05:08 | -34.41051 | 138.46297 | 11469 ft | 216 kts | 192° |
| 2026-04-19 05:08 | -34.44030 | 138.45738 | 10736 ft | 214 kts | 193° |
| 2026-04-19 05:08 | -34.45497 | 138.45463 | 10381 ft | 218 kts | 193° |
| 2026-04-19 05:09 | -34.46062 | 138.45357 | 10248 ft | 212 kts | 193° |
| 2026-04-19 05:09 | -34.47505 | 138.45085 | 9879 ft | 212 kts | 193° |
| 2026-04-19 05:09 | -34.48894 | 138.44819 | 9523 ft | 220 kts | 193° |
| 2026-04-19 05:09 | -34.50343 | 138.44549 | 9133 ft | 210 kts | 193° |
| 2026-04-19 05:10 | -34.51790 | 138.44278 | 8749 ft | 210 kts | 193° |
| 2026-04-19 05:10 | -34.53241 | 138.44003 | 8385 ft | 210 kts | 193° |
| 2026-04-19 05:10 | -34.54695 | 138.43731 | 8011 ft | 214 kts | 192° |
| 2026-04-19 05:10 | -34.56142 | 138.43462 | 7641 ft | 207 kts | 193° |
| 2026-04-19 05:11 | -34.57550 | 138.43196 | 7278 ft | 210 kts | 193° |
| 2026-04-19 05:11 | -34.58976 | 138.42925 | 6914 ft | 205 kts | 193° |
| 2026-04-19 05:11 | -34.60095 | 138.42715 | 6629 ft | 208 kts | 192° |
| 2026-04-19 05:11 | -34.61519 | 138.42445 | 6268 ft | 206 kts | 192° |
| 2026-04-19 05:12 | -34.62950 | 138.42174 | 5898 ft | 219 kts | 192° |
| 2026-04-19 05:12 | -34.63467 | 138.42075 | 5775 ft | 222 kts | 192° |
| 2026-04-19 05:12 | -34.64525 | 138.41879 | 5521 ft | 202 kts | 192° |
| 2026-04-19 05:12 | -34.65590 | 138.41677 | 5352 ft | 212 kts | 192° |
| 2026-04-19 05:13 | -34.66967 | 138.41420 | 5097 ft | 202 kts | 192° |
| 2026-04-19 05:13 | -34.67877 | 138.41247 | 4932 ft | 196 kts | 192° |
| 2026-04-19 05:13 | -34.68905 | 138.41052 | 4731 ft | 198 kts | 192° |
| 2026-04-19 05:13 | -34.69810 | 138.40880 | 4566 ft | 199 kts | 192° |
| 2026-04-19 05:14 | -34.70888 | 138.40676 | 4370 ft | 200 kts | 192° |
| 2026-04-19 05:14 | -34.72226 | 138.40426 | 3855 ft | 192 kts | 192° |
| 2026-04-19 05:14 | -34.73642 | 138.40152 | 3145 ft | 228 kts | 191° |
| 2026-04-19 05:14 | -34.75220 | 138.39853 | 3005 ft | 219 kts | 190° |
| 2026-04-19 05:15 | -34.76558 | 138.39604 | 3006 ft | 230 kts | 190° |
| 2026-04-19 05:15 | -34.77609 | 138.39405 | 3013 ft | 233 kts | 190° |
| 2026-04-19 05:15 | -34.78103 | 138.39311 | 3009 ft | 234 kts | 191° |
| 2026-04-19 05:15 | -34.79701 | 138.39008 | 3007 ft | 234 kts | 190° |
| 2026-04-19 05:16 | -34.81312 | 138.38702 | 3007 ft | 234 kts | 190° |
| 2026-04-19 05:16 | -34.81682 | 138.38632 | 3012 ft | 234 kts | 190° |
| 2026-04-19 05:16 | -34.83236 | 138.38339 | 3008 ft | 232 kts | 191° |
| 2026-04-19 05:16 | -34.84702 | 138.38064 | 2989 ft | 207 kts | 191° |
| 2026-04-19 05:17 | -34.86105 | 138.37796 | 2991 ft | 203 kts | 191° |
| 2026-04-19 05:17 | -34.87491 | 138.37533 | 2994 ft | 202 kts | 191° |
| 2026-04-19 05:17 | -34.88878 | 138.37268 | 2992 ft | 202 kts | 191° |
| 2026-04-19 05:17 | -34.90267 | 138.37004 | 2996 ft | 202 kts | 191° |
| 2026-04-19 05:18 | -34.91664 | 138.36740 | 2993 ft | 203 kts | 191° |
| 2026-04-19 05:18 | -34.93056 | 138.36475 | 2994 ft | 201 kts | 191° |
| 2026-04-19 05:18 | -34.94217 | 138.36254 | 2996 ft | 200 kts | 191° |
| 2026-04-19 05:19 | -34.95576 | 138.35996 | 2994 ft | 201 kts | 191° |
| 2026-04-19 05:19 | -34.96960 | 138.35732 | 2995 ft | 201 kts | 191° |
| 2026-04-19 05:19 | -34.98257 | 138.35485 | 2993 ft | 200 kts | 191° |
| 2026-04-19 05:19 | -34.99631 | 138.35225 | 2993 ft | 200 kts | 191° |
| 2026-04-19 05:20 | -35.01032 | 138.35311 | 2993 ft | 206 kts | 165° |
| 2026-04-19 05:20 | -35.02280 | 138.36123 | 2985 ft | 204 kts | 139° |
| 2026-04-19 05:20 | -35.03137 | 138.37496 | 2959 ft | 205 kts | 114° |
| 2026-04-19 05:20 | -35.03449 | 138.39149 | 2722 ft | 197 kts | 88° |
| 2026-04-19 05:21 | -35.03205 | 138.40719 | 2433 ft | 176 kts | 65° |
| 2026-04-19 05:21 | -35.02597 | 138.41902 | 2166 ft | 157 kts | 46° |
| 2026-04-19 05:21 | -35.01894 | 138.42905 | 1918 ft | 153 kts | 47° |
| 2026-04-19 05:21 | -35.01450 | 138.43560 | 1759 ft | 144 kts | 46° |
| 2026-04-19 05:22 | -35.00784 | 138.44534 | 1528 ft | 151 kts | 47° |
| 2026-04-19 05:22 | -34.99926 | 138.45779 | 1287 ft | 157 kts | 47° |
| 2026-04-19 05:22 | -34.99260 | 138.46755 | 1080 ft | 157 kts | 46° |
| 2026-04-19 05:23 | -34.99024 | 138.47096 | 1065 ft | 153 kts | 47° |
| 2026-04-19 05:23 | -34.98678 | 138.47602 | 1013 ft | 142 kts | 46° |
| 2026-04-19 05:23 | -34.98042 | 138.48527 | 892 ft | 135 kts | 47° |
| 2026-04-19 05:23 | -34.97672 | 138.49075 | 661 ft | 122 kts | 48° |
| 2026-04-19 05:24 | -34.97033 | 138.50018 | 506 ft | 105 kts | 44° |
| 2026-04-19 05:24 | -34.96598 | 138.50653 | 312 ft | 89 kts | 42° |
| 2026-04-19 05:24 | -34.96318 | 138.51055 | 214 ft | 98 kts | 44° |
| 2026-04-19 05:24 | -34.95866 | 138.51704 | 48 ft | 92 kts | 43° |
| 2026-04-19 05:25 | -34.95435 | 138.52322 | 19 ft | 66 kts | 49° |
| 2026-04-19 05:25 | -34.95263 | 138.52562 | 17 ft | 21 kts | 10° |
| 2026-04-19 05:25 | -34.95170 | 138.52488 | 17 ft | 21 kts | 323° |
| 2026-04-19 05:25 | -34.95154 | 138.52474 | 17 ft | 0 kts | 323° |
| 2026-04-19 05:26 | -34.95148 | 138.52469 | 17 ft | 6 kts | 327° |
| 2026-04-19 05:26 | -34.95061 | 138.52448 | 17 ft | 10 kts | 343° |
| 2026-04-19 05:27 | -34.95118 | 138.52368 | 16 ft | 14 kts | 218° |
| 2026-04-19 05:27 | -34.95079 | 138.52261 | 13 ft | 6 kts | 306° |
| 2026-04-19 05:27 | -34.95045 | 138.52218 | 13 ft | 14 kts | 323° |
| 2026-04-19 05:27 | -34.95007 | 138.52212 | 13 ft | 0 kts | 49° |